»·PEaware :: WAT175 KBUR-KSFO

WAT175 :: KBUR-KSFO

FLIGHT INFORMATION

Flight Status: Arrived
Operator: Unknown
More flights by this operator :: More flights under this callsign
Pilot: Michael C. (27126)
Aircraft: BOEING 737-800
(B738)
More flights by this aircraft type
Origin: KBUR Bob Hope-Burbank
United States
Destination: KSFO San Francisco Intl
United States
More flights between these airports :: More routes between these airports
Route: OROSZ2 COREZ MAKRS SERFR SERFR4
File this flight plan on PilotEdge
Remarks: RMK / SIMBRIEF
Altitude:
(Current/Filed)
34,000ft
Speed:
(Current/Filed)
454kts
Departed: 31-Jul-20 06:36 PM
Arrived: 31-Jul-20 07:28 PM
Distance/Time
Traveled:
283nm/0:52
Distance/Time
To Go:
Arrived

Flight Plot

Page will automatically refresh every two minutes.


Map Options




Map Legend


Flown Route
Filed Route
Departure Airport
Arrival Airport
Navaid (VOR, NDB)
Fix

Horizontal Profiles

Position Reports

Time Latitude Longitude Heading Altitude Ground
Speed
31-Jul-20 17:50 34.196810 -118.351970 179 741ft 0kts
31-Jul-20 17:50 34.196810 -118.351970 179 741ft 0kts
31-Jul-20 17:51 34.196810 -118.351970 179 741ft 0kts
31-Jul-20 17:52 34.196810 -118.351970 179 740ft 0kts
31-Jul-20 17:53 34.196810 -118.351970 179 740ft 0kts
31-Jul-20 17:54 34.196810 -118.351970 179 740ft 0kts
31-Jul-20 17:55 34.196810 -118.351970 179 740ft 0kts
31-Jul-20 17:56 34.196810 -118.351970 179 740ft 0kts
31-Jul-20 17:57 34.196810 -118.351970 179 740ft 0kts
31-Jul-20 17:58 34.196810 -118.351970 179 740ft 0kts
31-Jul-20 17:59 34.196810 -118.351970 179 740ft 0kts
31-Jul-20 18:00 34.196810 -118.351970 179 740ft 0kts
31-Jul-20 18:01 34.196810 -118.351970 179 740ft 0kts
31-Jul-20 18:02 34.196810 -118.351970 179 740ft 0kts
31-Jul-20 18:03 34.196810 -118.351970 179 740ft 0kts
31-Jul-20 18:04 34.196810 -118.351970 179 740ft 0kts
31-Jul-20 18:05 34.196810 -118.351970 179 740ft 0kts
31-Jul-20 18:06 34.196810 -118.351970 179 740ft 0kts
31-Jul-20 18:07 34.196810 -118.351970 179 740ft 0kts
31-Jul-20 18:08 34.196810 -118.351970 179 740ft 0kts
31-Jul-20 18:09 34.196810 -118.351970 179 740ft 0kts
31-Jul-20 18:10 34.196810 -118.351970 179 740ft 0kts
31-Jul-20 18:11 34.196810 -118.351970 179 740ft 0kts
31-Jul-20 18:12 34.196810 -118.351970 179 740ft 0kts
31-Jul-20 18:13 34.196810 -118.351970 179 740ft 0kts
31-Jul-20 18:14 34.196810 -118.351970 179 740ft 0kts
31-Jul-20 18:15 34.196810 -118.351970 179 740ft 0kts
31-Jul-20 18:16 34.196810 -118.351970 179 740ft 0kts
31-Jul-20 18:17 34.196810 -118.351970 179 740ft 0kts
31-Jul-20 18:18 34.196810 -118.351970 179 740ft 0kts
31-Jul-20 18:19 34.196810 -118.351970 179 740ft 0kts
31-Jul-20 18:20 34.196810 -118.351970 179 740ft 0kts
31-Jul-20 18:21 34.196810 -118.351970 179 740ft 0kts
31-Jul-20 18:22 34.196810 -118.351970 179 740ft 0kts
31-Jul-20 18:23 34.196810 -118.351970 179 740ft 0kts
31-Jul-20 18:24 34.196810 -118.351970 179 740ft 0kts
31-Jul-20 18:25 34.196810 -118.351970 179 740ft 0kts
31-Jul-20 18:26 34.197156 -118.351722 251 740ft 2kts
31-Jul-20 18:27 34.197174 -118.351516 272 740ft 0kts
31-Jul-20 18:28 34.197186 -118.352390 270 740ft 10kts
31-Jul-20 18:29 34.199038 -118.355505 349 740ft 20kts
31-Jul-20 18:30 34.204442 -118.356962 346 740ft 17kts
31-Jul-20 18:31 34.208658 -118.358114 347 740ft 13kts
31-Jul-20 18:32 34.211537 -118.359051 316 740ft 0kts
31-Jul-20 18:33 34.211537 -118.359052 316 740ft 0kts
31-Jul-20 18:34 34.210334 -118.359868 169 740ft 37kts
31-Jul-20 18:35 34.175395 -118.362829 223 1924ft 189kts
31-Jul-20 18:36 34.132474 -118.423918 242 3803ft 263kts
31-Jul-20 18:37 34.171825 -118.486146 352 6496ft 296kts
31-Jul-20 18:38 34.255776 -118.496828 352 8798ft 303kts
31-Jul-20 18:39 34.341805 -118.508121 346 11124ft 311kts
31-Jul-20 18:40 34.377483 -118.588737 269 13411ft 305kts
31-Jul-20 18:41 34.375070 -118.694464 289 14552ft 365kts
31-Jul-20 18:42 34.469572 -118.746064 347 15771ft 411kts
31-Jul-20 18:43 34.579847 -118.784297 330 16986ft 410kts
31-Jul-20 18:44 34.680644 -118.853856 327 18192ft 422kts
31-Jul-20 18:45 34.786370 -118.928955 327 19811ft 440kts
31-Jul-20 18:46 34.894903 -119.006246 327 21415ft 453kts
31-Jul-20 18:47 35.005482 -119.085306 326 22999ft 460kts
31-Jul-20 18:48 35.117940 -119.166203 326 24422ft 467kts
31-Jul-20 18:49 35.232016 -119.248319 326 25649ft 476kts
31-Jul-20 18:50 35.347018 -119.331295 326 26996ft 479kts
31-Jul-20 18:51 35.462029 -119.414525 325 28622ft 476kts
31-Jul-20 18:52 35.552806 -119.526906 294 29910ft 463kts
31-Jul-20 18:53 35.585146 -119.675182 278 31780ft 442kts
31-Jul-20 18:54 35.606350 -119.816541 278 33954ft 419kts
31-Jul-20 18:55 35.623686 -119.931432 276 33971ft 436kts
31-Jul-20 18:56 35.645609 -120.081638 276 33980ft 447kts
31-Jul-20 18:57 35.667482 -120.231928 276 33981ft 445kts
31-Jul-20 18:58 35.702266 -120.379469 288 33981ft 451kts
31-Jul-20 18:59 35.752539 -120.522096 290 33981ft 453kts
31-Jul-20 19:00 35.804867 -120.661941 290 33982ft 453kts
31-Jul-20 19:01 35.858241 -120.803058 290 33981ft 453kts
31-Jul-20 19:02 35.910381 -120.940862 291 33981ft 452kts
31-Jul-20 19:03 35.963455 -121.081472 289 33973ft 438kts
31-Jul-20 19:04 36.013002 -121.213498 288 33988ft 424kts
31-Jul-20 19:05 36.070543 -121.342958 307 33031ft 450kts
31-Jul-20 19:06 36.170501 -121.439093 320 30280ft 450kts
31-Jul-20 19:07 36.273615 -121.523333 322 28031ft 432kts
31-Jul-20 19:08 36.373638 -121.602799 323 25839ft 414kts
31-Jul-20 19:09 36.468514 -121.677538 323 23738ft 384kts
31-Jul-20 19:10 36.557455 -121.747963 323 21716ft 374kts
31-Jul-20 19:11 36.644703 -121.817175 323 19726ft 366kts
31-Jul-20 19:12 36.730637 -121.884014 331 17764ft 360kts
31-Jul-20 19:13 36.827011 -121.918035 344 15849ft 355kts
31-Jul-20 19:14 36.922895 -121.944821 345 13946ft 346kts
31-Jul-20 19:15 37.015303 -121.977618 341 12063ft 336kts
31-Jul-20 19:16 37.103752 -122.012260 341 10467ft 313kts
31-Jul-20 19:17 37.181153 -122.042532 340 9718ft 279kts
31-Jul-20 19:18 37.255881 -122.071827 340 8338ft 280kts
31-Jul-20 19:19 37.330107 -122.101057 340 6805ft 270kts
31-Jul-20 19:20 37.399513 -122.127431 342 5966ft 251kts
31-Jul-20 19:21 37.467341 -122.150434 342 4218ft 245kts
31-Jul-20 19:22 37.529382 -122.177310 324 2875ft 224kts
31-Jul-20 19:24 37.561609 -122.239530 297 1827ft 193kts
31-Jul-20 19:25 37.581985 -122.287798 297 1244ft 145kts
31-Jul-20 19:26 37.600852 -122.332594 297 491ft 139kts
31-Jul-20 19:27 37.618004 -122.373352 298 22ft 66kts
31-Jul-20 19:28 37.619717 -122.379162 228 21ft 6kts
31-Jul-20 19:29 37.619065 -122.382852 261 21ft 4kts
31-Jul-20 19:30 37.619190 -122.383524 289 21ft 0kts

Navigation Log

Ident Type
Flight plan parsing failed, navigation log unavailable